sensor_id;sensor_type;location;lat;lon;timestamp;pressure;altitude;pressure_sealevel;temperature;humidity
54308;BME280;40208;39.778;2.710;2022-09-17T00:02:43;100986.97;;;21.72;100.00
54308;BME280;40208;39.778;2.710;2022-09-17T00:05:29;100979.56;;;21.64;100.00
54308;BME280;40208;39.778;2.710;2022-09-17T00:08:14;100940.09;;;21.42;100.00
54308;BME280;40208;39.778;2.710;2022-09-17T00:11:06;100981.25;;;21.65;100.00
54308;BME280;40208;39.778;2.710;2022-09-17T00:13:52;100874.06;;;20.94;100.00
54308;BME280;40208;39.778;2.710;2022-09-17T00:16:40;100859.94;;;20.81;100.00
54308;BME280;40208;39.778;2.710;2022-09-17T00:19:26;100985.19;;;21.51;100.00
54308;BME280;40208;39.778;2.710;2022-09-17T00:22:10;100982.88;;;21.47;100.00
54308;BME280;40208;39.778;2.710;2022-09-17T00:24:55;100971.63;;;21.42;100.00
54308;BME280;40208;39.778;2.710;2022-09-17T00:27:40;100833.84;;;20.61;100.00
54308;BME280;40208;39.778;2.710;2022-09-17T00:30:25;100954.34;;;21.33;100.00
54308;BME280;40208;39.778;2.710;2022-09-17T00:33:15;100941.41;;;21.27;100.00
54308;BME280;40208;39.778;2.710;2022-09-17T00:36:01;100946.41;;;21.31;100.00
54308;BME280;40208;39.778;2.710;2022-09-17T00:38:51;100943.31;;;21.36;100.00
54308;BME280;40208;39.778;2.710;2022-09-17T00:41:37;100936.19;;;21.35;100.00
54308;BME280;40208;39.778;2.710;2022-09-17T00:47:35;100798.69;;;20.51;100.00
54308;BME280;40208;39.778;2.710;2022-09-17T00:50:31;100938.72;;;21.27;100.00
54308;BME280;40208;39.778;2.710;2022-09-17T00:53:19;100932.16;;;21.20;100.00
54308;BME280;40208;39.778;2.710;2022-09-17T00:56:35;100926.03;;;21.17;100.00
54308;BME280;40208;39.778;2.710;2022-09-17T00:59:22;100915.09;;;21.19;100.00
54308;BME280;40208;39.778;2.710;2022-09-17T01:02:08;100916.19;;;21.16;100.00
54308;BME280;40208;39.778;2.710;2022-09-17T01:04:53;100909.63;;;21.09;100.00
54308;BME280;40208;39.778;2.710;2022-09-17T01:36:09;100896.56;;;21.05;100.00
54308;BME280;40208;39.778;2.710;2022-09-17T01:39:04;100914.63;;;21.14;100.00
54308;BME280;40208;39.778;2.710;2022-09-17T01:41:57;100912.53;;;21.17;100.00
54308;BME280;40208;39.778;2.710;2022-09-17T01:47:57;100916.28;;;21.26;100.00
54308;BME280;40208;39.778;2.710;2022-09-17T01:50:56;100880.38;;;21.05;100.00
54308;BME280;40208;39.778;2.710;2022-09-17T01:54:08;100919.09;;;21.25;100.00
54308;BME280;40208;39.778;2.710;2022-09-17T01:57:02;100903.47;;;21.28;100.00
54308;BME280;40208;39.778;2.710;2022-09-17T01:59:56;100882.72;;;21.19;100.00
54308;BME280;40208;39.778;2.710;2022-09-17T02:03:08;100886.31;;;21.39;100.00
54308;BME280;40208;39.778;2.710;2022-09-17T02:06:25;100889.22;;;21.47;100.00
54308;BME280;40208;39.778;2.710;2022-09-17T02:09:16;100895.63;;;21.46;100.00
54308;BME280;40208;39.778;2.710;2022-09-17T02:12:09;100881.41;;;21.44;100.00
54308;BME280;40208;39.778;2.710;2022-09-17T02:14:59;100812.22;;;21.12;100.00
54308;BME280;40208;39.778;2.710;2022-09-17T02:17:50;100869.22;;;21.59;100.00
54308;BME280;40208;39.778;2.710;2022-09-17T02:20:45;100848.09;;;21.34;100.00
54308;BME280;40208;39.778;2.710;2022-09-17T02:23:35;100877.16;;;21.51;100.00
54308;BME280;40208;39.778;2.710;2022-09-17T02:26:33;100849.78;;;21.35;100.00
54308;BME280;40208;39.778;2.710;2022-09-17T02:29:28;100752.19;;;20.89;100.00
54308;BME280;40208;39.778;2.710;2022-09-17T02:32:15;100841.19;;;21.41;100.00
54308;BME280;40208;39.778;2.710;2022-09-17T02:35:00;100826.66;;;21.42;100.00
54308;BME280;40208;39.778;2.710;2022-09-17T02:37:45;100853.16;;;21.68;100.00
54308;BME280;40208;39.778;2.710;2022-09-17T02:40:34;100858.75;;;21.76;100.00
54308;BME280;40208;39.778;2.710;2022-09-17T02:43:36;100873.25;;;21.85;100.00
54308;BME280;40208;39.778;2.710;2022-09-17T02:52:56;100913.66;;;21.86;100.00
54308;BME280;40208;39.778;2.710;2022-09-17T03:02:20;100927.94;;;22.27;100.00
54308;BME280;40208;39.778;2.710;2022-09-17T03:05:07;100934.66;;;22.42;100.00
54308;BME280;40208;39.778;2.710;2022-09-17T03:07:54;100849.94;;;22.13;100.00
54308;BME280;40208;39.778;2.710;2022-09-17T03:10:40;100934.03;;;22.68;100.00
54308;BME280;40208;39.778;2.710;2022-09-17T03:13:25;100927.72;;;22.97;100.00
54308;BME280;40208;39.778;2.710;2022-09-17T03:16:10;100920.47;;;22.97;100.00
54308;BME280;40208;39.778;2.710;2022-09-17T03:18:54;100928.59;;;23.07;100.00
54308;BME280;40208;39.778;2.710;2022-09-17T03:21:39;100922.88;;;23.10;100.00
54308;BME280;40208;39.778;2.710;2022-09-17T03:24:24;100909.47;;;23.18;100.00
54308;BME280;40208;39.778;2.710;2022-09-17T03:27:09;100911.25;;;23.27;100.00
54308;BME280;40208;39.778;2.710;2022-09-17T03:29:54;100921.06;;;23.38;100.00
54308;BME280;40208;39.778;2.710;2022-09-17T03:32:38;100918.63;;;23.45;100.00
54308;BME280;40208;39.778;2.710;2022-09-17T03:35:23;100903.81;;;23.39;100.00
54308;BME280;40208;39.778;2.710;2022-09-17T03:38:09;100911.47;;;23.44;100.00
54308;BME280;40208;39.778;2.710;2022-09-17T03:41:02;100838.41;;;22.97;100.00
54308;BME280;40208;39.778;2.710;2022-09-17T03:43:48;100913.22;;;23.45;100.00
54308;BME280;40208;39.778;2.710;2022-09-17T03:46:33;100915.91;;;23.45;100.00
54308;BME280;40208;39.778;2.710;2022-09-17T03:49:18;100905.22;;;23.43;100.00
54308;BME280;40208;39.778;2.710;2022-09-17T03:52:02;100893.59;;;23.33;100.00
54308;BME280;40208;39.778;2.710;2022-09-17T03:54:47;100911.47;;;23.44;100.00
54308;BME280;40208;39.778;2.710;2022-09-17T03:57:32;100870.25;;;23.22;100.00
54308;BME280;40208;39.778;2.710;2022-09-17T04:00:17;100909.09;;;23.41;100.00
54308;BME280;40208;39.778;2.710;2022-09-17T04:03:03;100910.69;;;23.34;100.00
54308;BME280;40208;39.778;2.710;2022-09-17T04:05:48;100911.13;;;23.29;100.00
54308;BME280;40208;39.778;2.710;2022-09-17T04:08:33;100861.09;;;22.86;100.00
54308;BME280;40208;39.778;2.710;2022-09-17T04:11:18;100920.97;;;23.20;100.00
54308;BME280;40208;39.778;2.710;2022-09-17T04:14:03;100907.34;;;23.12;100.00
54308;BME280;40208;39.778;2.710;2022-09-17T04:16:47;100917.72;;;23.17;100.00
54308;BME280;40208;39.778;2.710;2022-09-17T04:19:32;100894.56;;;22.95;100.00
54308;BME280;40208;39.778;2.710;2022-09-17T04:22:18;100908.09;;;22.95;100.00
54308;BME280;40208;39.778;2.710;2022-09-17T04:25:03;100892.84;;;22.84;100.00
54308;BME280;40208;39.778;2.710;2022-09-17T04:27:48;100803.97;;;22.32;100.00
54308;BME280;40208;39.778;2.710;2022-09-17T04:30:33;100925.75;;;22.99;100.00
54308;BME280;40208;39.778;2.710;2022-09-17T04:33:18;100921.91;;;22.92;100.00
54308;BME280;40208;39.778;2.710;2022-09-17T04:36:03;100929.91;;;22.83;100.00
54308;BME280;40208;39.778;2.710;2022-09-17T04:38:48;100931.47;;;22.76;100.00
54308;BME280;40208;39.778;2.710;2022-09-17T04:41:33;100936.19;;;22.64;100.00
54308;BME280;40208;39.778;2.710;2022-09-17T04:44:18;100944.88;;;22.58;100.00
54308;BME280;40208;39.778;2.710;2022-09-17T04:47:03;100946.00;;;22.56;100.00
54308;BME280;40208;39.778;2.710;2022-09-17T04:49:48;100959.84;;;22.53;100.00
54308;BME280;40208;39.778;2.710;2022-09-17T04:52:33;100962.53;;;22.53;100.00
54308;BME280;40208;39.778;2.710;2022-09-17T04:55:18;100959.53;;;22.46;100.00
54308;BME280;40208;39.778;2.710;2022-09-17T04:58:03;100962.69;;;22.41;100.00
54308;BME280;40208;39.778;2.710;2022-09-17T05:00:48;100952.16;;;22.38;100.00
54308;BME280;40208;39.778;2.710;2022-09-17T05:03:33;100957.25;;;22.32;100.00
54308;BME280;40208;39.778;2.710;2022-09-17T05:06:17;100965.66;;;22.29;100.00
54308;BME280;40208;39.778;2.710;2022-09-17T05:09:02;100954.81;;;22.19;100.00
54308;BME280;40208;39.778;2.710;2022-09-17T05:11:47;100972.66;;;21.81;100.00
54308;BME280;40208;39.778;2.710;2022-09-17T05:14:31;100920.38;;;21.51;100.00
54308;BME280;40208;39.778;2.710;2022-09-17T05:17:16;100968.19;;;21.70;100.00
54308;BME280;40208;39.778;2.710;2022-09-17T05:20:01;100968.03;;;21.62;100.00
54308;BME280;40208;39.778;2.710;2022-09-17T05:22:50;100977.28;;;21.59;100.00
54308;BME280;40208;39.778;2.710;2022-09-17T05:25:35;100938.50;;;21.39;100.00
54308;BME280;40208;39.778;2.710;2022-09-17T05:28:20;100983.94;;;21.55;100.00
54308;BME280;40208;39.778;2.710;2022-09-17T05:31:05;100969.53;;;21.45;100.00
54308;BME280;40208;39.778;2.710;2022-09-17T05:33:50;100924.41;;;21.05;100.00
54308;BME280;40208;39.778;2.710;2022-09-17T05:36:35;100989.47;;;21.33;100.00
54308;BME280;40208;39.778;2.710;2022-09-17T05:39:20;100857.50;;;20.57;100.00
54308;BME280;40208;39.778;2.710;2022-09-17T05:42:08;100967.75;;;21.13;100.00
54308;BME280;40208;39.778;2.710;2022-09-17T05:44:53;100977.31;;;21.17;100.00
54308;BME280;40208;39.778;2.710;2022-09-17T05:47:38;100985.41;;;21.17;100.00
54308;BME280;40208;39.778;2.710;2022-09-17T05:50:24;100986.53;;;21.15;100.00
54308;BME280;40208;39.778;2.710;2022-09-17T05:53:11;100998.56;;;21.11;100.00
54308;BME280;40208;39.778;2.710;2022-09-17T05:55:57;100984.75;;;21.04;100.00
54308;BME280;40208;39.778;2.710;2022-09-17T05:58:42;101008.31;;;21.23;100.00
54308;BME280;40208;39.778;2.710;2022-09-17T06:01:27;100985.53;;;21.16;100.00
54308;BME280;40208;39.778;2.710;2022-09-17T06:04:12;100995.97;;;21.30;100.00
54308;BME280;40208;39.778;2.710;2022-09-17T06:06:57;100963.47;;;21.11;100.00
54308;BME280;40208;39.778;2.710;2022-09-17T06:09:41;101009.31;;;21.43;100.00
54308;BME280;40208;39.778;2.710;2022-09-17T06:12:26;101015.28;;;21.47;100.00
54308;BME280;40208;39.778;2.710;2022-09-17T06:15:14;101013.91;;;21.52;100.00
54308;BME280;40208;39.778;2.710;2022-09-17T06:17:59;101019.94;;;21.66;100.00
54308;BME280;40208;39.778;2.710;2022-09-17T06:20:52;101008.31;;;21.75;100.00
54308;BME280;40208;39.778;2.710;2022-09-17T06:23:37;101011.66;;;21.88;100.00
54308;BME280;40208;39.778;2.710;2022-09-17T06:26:22;101005.16;;;22.10;100.00
54308;BME280;40208;39.778;2.710;2022-09-17T06:29:07;101010.22;;;22.34;100.00
54308;BME280;40208;39.778;2.710;2022-09-17T06:31:52;101004.81;;;22.54;100.00
54308;BME280;40208;39.778;2.710;2022-09-17T06:34:38;101014.78;;;22.53;100.00
54308;BME280;40208;39.778;2.710;2022-09-17T06:37:30;100894.75;;;21.96;100.00
54308;BME280;40208;39.778;2.710;2022-09-17T06:40:15;100892.34;;;22.02;100.00
54308;BME280;40208;39.778;2.710;2022-09-17T06:43:01;101008.81;;;22.79;100.00
54308;BME280;40208;39.778;2.710;2022-09-17T06:45:55;101014.50;;;22.95;100.00
54308;BME280;40208;39.778;2.710;2022-09-17T06:48:40;100993.44;;;22.99;100.00
54308;BME280;40208;39.778;2.710;2022-09-17T06:51:25;101003.66;;;23.15;100.00
54308;BME280;40208;39.778;2.710;2022-09-17T06:54:10;101006.22;;;23.26;100.00
54308;BME280;40208;39.778;2.710;2022-09-17T06:56:55;101000.06;;;23.34;100.00
54308;BME280;40208;39.778;2.710;2022-09-17T06:59:40;100999.31;;;23.41;100.00
54308;BME280;40208;39.778;2.710;2022-09-17T07:02:26;100904.97;;;22.99;100.00
54308;BME280;40208;39.778;2.710;2022-09-17T07:05:11;100995.94;;;23.77;100.00
54308;BME280;40208;39.778;2.710;2022-09-17T07:07:56;101007.19;;;23.82;100.00
54308;BME280;40208;39.778;2.710;2022-09-17T07:10:41;100993.75;;;23.90;100.00
54308;BME280;40208;39.778;2.710;2022-09-17T07:13:26;100982.06;;;23.89;100.00
54308;BME280;40208;39.778;2.710;2022-09-17T07:16:11;101016.78;;;24.04;100.00
54308;BME280;40208;39.778;2.710;2022-09-17T07:18:56;100949.53;;;23.80;100.00
54308;BME280;40208;39.778;2.710;2022-09-17T07:21:40;101012.94;;;24.24;100.00
54308;BME280;40208;39.778;2.710;2022-09-17T07:24:25;100967.28;;;24.02;100.00
54308;BME280;40208;39.778;2.710;2022-09-17T07:27:10;100967.53;;;24.08;100.00
54308;BME280;40208;39.778;2.710;2022-09-17T07:29:55;100964.38;;;24.03;100.00
54308;BME280;40208;39.778;2.710;2022-09-17T07:32:40;101019.69;;;24.38;100.00
54308;BME280;40208;39.778;2.710;2022-09-17T07:35:25;101025.50;;;24.43;100.00
54308;BME280;40208;39.778;2.710;2022-09-17T07:38:10;101014.84;;;24.42;100.00
54308;BME280;40208;39.778;2.710;2022-09-17T07:40:57;101014.22;;;24.48;100.00
54308;BME280;40208;39.778;2.710;2022-09-17T07:43:43;101027.06;;;24.46;100.00
54308;BME280;40208;39.778;2.710;2022-09-17T07:46:28;101005.69;;;24.43;100.00
54308;BME280;40208;39.778;2.710;2022-09-17T07:49:13;101021.59;;;24.73;100.00
54308;BME280;40208;39.778;2.710;2022-09-17T07:51:58;101029.34;;;24.86;100.00
54308;BME280;40208;39.778;2.710;2022-09-17T07:54:48;100928.31;;;24.21;100.00
54308;BME280;40208;39.778;2.710;2022-09-17T07:57:33;101039.75;;;24.91;100.00
54308;BME280;40208;39.778;2.710;2022-09-17T08:00:18;101046.88;;;24.92;100.00
54308;BME280;40208;39.778;2.710;2022-09-17T08:03:02;101029.56;;;24.93;100.00
54308;BME280;40208;39.778;2.710;2022-09-17T08:05:47;101045.78;;;25.03;100.00
54308;BME280;40208;39.778;2.710;2022-09-17T08:08:33;101058.03;;;25.07;100.00
54308;BME280;40208;39.778;2.710;2022-09-17T08:11:22;101064.50;;;25.06;100.00
54308;BME280;40208;39.778;2.710;2022-09-17T08:14:12;101059.22;;;25.04;100.00
54308;BME280;40208;39.778;2.710;2022-09-17T08:16:58;101072.63;;;25.06;100.00
54308;BME280;40208;39.778;2.710;2022-09-17T08:19:43;101069.97;;;25.14;100.00
54308;BME280;40208;39.778;2.710;2022-09-17T08:22:27;101072.00;;;25.12;100.00
54308;BME280;40208;39.778;2.710;2022-09-17T08:25:14;101086.13;;;25.15;100.00
54308;BME280;40208;39.778;2.710;2022-09-17T08:27:59;101079.69;;;25.16;100.00
54308;BME280;40208;39.778;2.710;2022-09-17T08:30:44;101071.69;;;25.15;100.00
54308;BME280;40208;39.778;2.710;2022-09-17T08:33:31;101092.50;;;25.24;100.00
54308;BME280;40208;39.778;2.710;2022-09-17T08:36:18;101086.91;;;25.26;100.00
54308;BME280;40208;39.778;2.710;2022-09-17T08:39:03;101085.03;;;25.26;100.00
54308;BME280;40208;39.778;2.710;2022-09-17T08:42:12;101085.50;;;25.39;100.00
54308;BME280;40208;39.778;2.710;2022-09-17T08:45:03;100893.81;;;24.13;100.00
54308;BME280;40208;39.778;2.710;2022-09-17T08:47:48;100987.41;;;24.81;100.00
54308;BME280;40208;39.778;2.710;2022-09-17T08:50:34;101083.16;;;25.45;100.00
54308;BME280;40208;39.778;2.710;2022-09-17T08:56:21;101090.28;;;25.46;100.00
54308;BME280;40208;39.778;2.710;2022-09-17T08:59:32;100971.72;;;24.92;100.00
54308;BME280;40208;39.778;2.710;2022-09-17T09:05:40;100947.16;;;24.76;100.00
54308;BME280;40208;39.778;2.710;2022-09-17T09:11:25;101080.75;;;25.68;100.00
54308;BME280;40208;39.778;2.710;2022-09-17T09:14:30;101000.06;;;25.16;100.00
54308;BME280;40208;39.778;2.710;2022-09-17T09:17:17;101065.22;;;25.60;100.00
54308;BME280;40208;39.778;2.710;2022-09-17T09:20:14;101059.06;;;25.50;100.00
54308;BME280;40208;39.778;2.710;2022-09-17T09:23:20;101035.22;;;25.44;100.00
54308;BME280;40208;39.778;2.710;2022-09-17T09:26:16;101089.97;;;25.75;100.00
54308;BME280;40208;39.778;2.710;2022-09-17T09:29:09;101103.75;;;25.81;100.00
54308;BME280;40208;39.778;2.710;2022-09-17T09:35:33;101105.41;;;25.74;100.00
54308;BME280;40208;39.778;2.710;2022-09-17T09:38:30;101105.28;;;25.76;100.00
54308;BME280;40208;39.778;2.710;2022-09-17T09:41:28;101095.56;;;25.73;100.00
54308;BME280;40208;39.778;2.710;2022-09-17T09:44:15;101111.88;;;25.73;100.00
54308;BME280;40208;39.778;2.710;2022-09-17T09:53:57;101111.91;;;25.81;100.00
54308;BME280;40208;39.778;2.710;2022-09-17T09:56:56;101124.91;;;25.88;100.00
54308;BME280;40208;39.778;2.710;2022-09-17T09:59:42;101054.25;;;25.44;100.00
54308;BME280;40208;39.778;2.710;2022-09-17T10:02:27;101125.63;;;25.90;100.00
54308;BME280;40208;39.778;2.710;2022-09-17T10:05:12;101137.50;;;25.89;100.00
54308;BME280;40208;39.778;2.710;2022-09-17T10:07:57;101134.84;;;25.79;100.00
54308;BME280;40208;39.778;2.710;2022-09-17T10:11:01;101158.25;;;25.90;100.00
54308;BME280;40208;39.778;2.710;2022-09-17T10:13:46;101108.84;;;25.76;100.00
54308;BME280;40208;39.778;2.710;2022-09-17T10:16:31;101114.13;;;25.78;100.00
54308;BME280;40208;39.778;2.710;2022-09-17T10:19:20;101127.31;;;25.91;100.00
54308;BME280;40208;39.778;2.710;2022-09-17T10:28:04;101041.31;;;25.37;100.00
54308;BME280;40208;39.778;2.710;2022-09-17T10:31:06;101131.09;;;25.98;100.00
54308;BME280;40208;39.778;2.710;2022-09-17T10:34:00;101081.63;;;25.68;100.00
54308;BME280;40208;39.778;2.710;2022-09-17T10:36:46;101140.50;;;26.04;100.00
54308;BME280;40208;39.778;2.710;2022-09-17T10:42:18;101130.09;;;25.99;100.00
54308;BME280;40208;39.778;2.710;2022-09-17T10:45:03;101115.16;;;26.03;100.00
54308;BME280;40208;39.778;2.710;2022-09-17T10:47:47;101115.81;;;26.05;100.00
54308;BME280;40208;39.778;2.710;2022-09-17T10:50:33;101117.38;;;26.08;100.00
54308;BME280;40208;39.778;2.710;2022-09-17T10:53:19;101032.31;;;25.63;100.00
54308;BME280;40208;39.778;2.710;2022-09-17T11:08:16;101119.72;;;26.02;100.00
54308;BME280;40208;39.778;2.710;2022-09-17T11:14:14;101107.00;;;26.03;100.00
54308;BME280;40208;39.778;2.710;2022-09-17T11:29:20;101117.13;;;26.27;100.00
54308;BME280;40208;39.778;2.710;2022-09-17T11:41:05;101103.53;;;26.27;100.00
54308;BME280;40208;39.778;2.710;2022-09-17T11:44:13;101133.00;;;26.40;100.00
54308;BME280;40208;39.778;2.710;2022-09-17T11:47:11;101130.59;;;26.37;100.00
54308;BME280;40208;39.778;2.710;2022-09-17T11:50:02;101139.09;;;26.34;100.00
54308;BME280;40208;39.778;2.710;2022-09-17T11:55:46;101142.19;;;26.39;100.00
54308;BME280;40208;39.778;2.710;2022-09-17T11:58:52;101106.06;;;26.20;100.00
54308;BME280;40208;39.778;2.710;2022-09-17T12:02:03;101146.09;;;26.36;99.11
54308;BME280;40208;39.778;2.710;2022-09-17T12:05:13;101158.19;;;26.42;100.00
54308;BME280;40208;39.778;2.710;2022-09-17T12:08:14;101122.22;;;26.22;100.00
54308;BME280;40208;39.778;2.710;2022-09-17T12:11:14;101143.53;;;26.35;100.00
54308;BME280;40208;39.778;2.710;2022-09-17T12:14:15;101107.03;;;26.11;100.00
54308;BME280;40208;39.778;2.710;2022-09-17T12:17:02;101106.34;;;26.09;100.00
54308;BME280;40208;39.778;2.710;2022-09-17T12:19:57;101127.41;;;26.41;100.00
54308;BME280;40208;39.778;2.710;2022-09-17T12:22:43;101100.47;;;26.30;99.62
54308;BME280;40208;39.778;2.710;2022-09-17T12:25:44;101118.34;;;26.41;100.00
54308;BME280;40208;39.778;2.710;2022-09-17T12:28:40;101134.88;;;26.48;98.91
54308;BME280;40208;39.778;2.710;2022-09-17T12:49:57;101024.72;;;26.09;97.35
54308;BME280;40208;39.778;2.710;2022-09-17T12:59:07;101098.88;;;26.62;98.54
54308;BME280;40208;39.778;2.710;2022-09-17T13:04:53;101090.56;;;26.72;96.86
54308;BME280;40208;39.778;2.710;2022-09-17T13:20:25;101077.47;;;26.83;95.08
54308;BME280;40208;39.778;2.710;2022-09-17T13:23:11;101066.91;;;26.64;94.31
54308;BME280;40208;39.778;2.710;2022-09-17T13:25:56;101091.09;;;26.75;94.64
54308;BME280;40208;39.778;2.710;2022-09-17T13:28:49;101061.94;;;26.51;94.45
54308;BME280;40208;39.778;2.710;2022-09-17T13:37:16;101095.31;;;26.61;96.44
54308;BME280;40208;39.778;2.710;2022-09-17T13:40:03;101092.59;;;26.61;97.17
54308;BME280;40208;39.778;2.710;2022-09-17T13:42:53;101081.81;;;26.52;96.77
54308;BME280;40208;39.778;2.710;2022-09-17T13:48:54;101086.66;;;26.58;96.57
54308;BME280;40208;39.778;2.710;2022-09-17T13:51:43;101083.53;;;26.53;97.01
54308;BME280;40208;39.778;2.710;2022-09-17T13:54:37;101019.97;;;26.11;97.64
54308;BME280;40208;39.778;2.710;2022-09-17T13:57:22;101083.75;;;26.59;96.51
54308;BME280;40208;39.778;2.710;2022-09-17T14:21:31;101050.75;;;26.62;98.93
54308;BME280;40208;39.778;2.710;2022-09-17T14:27:58;101049.91;;;26.78;97.15
54308;BME280;40208;39.778;2.710;2022-09-17T14:30:46;101047.03;;;26.80;97.12
54308;BME280;40208;39.778;2.710;2022-09-17T14:33:33;101038.84;;;26.72;96.25
54308;BME280;40208;39.778;2.710;2022-09-17T14:36:19;101031.69;;;26.71;95.83
54308;BME280;40208;39.778;2.710;2022-09-17T14:39:13;101034.44;;;26.62;95.93
54308;BME280;40208;39.778;2.710;2022-09-17T14:42:03;101054.31;;;26.71;96.04
54308;BME280;40208;39.778;2.710;2022-09-17T14:45:02;101000.97;;;26.36;95.06
54308;BME280;40208;39.778;2.710;2022-09-17T14:47:48;101062.50;;;26.71;95.73
54308;BME280;40208;39.778;2.710;2022-09-17T14:50:33;101071.50;;;26.63;92.59
54308;BME280;40208;39.778;2.710;2022-09-17T14:53:19;101048.72;;;26.81;95.32
54308;BME280;40208;39.778;2.710;2022-09-17T14:56:06;101051.97;;;26.84;94.76
54308;BME280;40208;39.778;2.710;2022-09-17T14:58:53;101065.56;;;26.68;95.36
54308;BME280;40208;39.778;2.710;2022-09-17T15:01:45;101062.00;;;26.76;95.62
54308;BME280;40208;39.778;2.710;2022-09-17T15:04:31;101069.31;;;26.83;95.27
54308;BME280;40208;39.778;2.710;2022-09-17T15:07:16;101047.84;;;26.64;94.14
54308;BME280;40208;39.778;2.710;2022-09-17T15:10:11;101025.81;;;26.41;94.98
54308;BME280;40208;39.778;2.710;2022-09-17T15:12:56;101047.66;;;26.57;96.04
54308;BME280;40208;39.778;2.710;2022-09-17T15:16:02;101070.16;;;26.68;96.70
54308;BME280;40208;39.778;2.710;2022-09-17T15:18:52;101069.81;;;26.71;95.32
54308;BME280;40208;39.778;2.710;2022-09-17T15:21:44;101040.16;;;26.51;93.61
54308;BME280;40208;39.778;2.710;2022-09-17T15:24:42;101039.13;;;26.44;95.47
54308;BME280;40208;39.778;2.710;2022-09-17T15:27:42;101064.03;;;26.65;95.37
54308;BME280;40208;39.778;2.710;2022-09-17T15:30:28;101063.69;;;26.60;94.70
54308;BME280;40208;39.778;2.710;2022-09-17T15:33:13;101071.84;;;26.60;93.73
54308;BME280;40208;39.778;2.710;2022-09-17T15:38:53;101073.19;;;26.56;95.87
54308;BME280;40208;39.778;2.710;2022-09-17T15:41:38;101060.78;;;26.54;94.48
54308;BME280;40208;39.778;2.710;2022-09-17T15:44:24;101086.25;;;26.53;93.43
54308;BME280;40208;39.778;2.710;2022-09-17T15:50:33;101088.81;;;26.46;94.77
54308;BME280;40208;39.778;2.710;2022-09-17T15:53:26;101086.38;;;26.43;95.05
54308;BME280;40208;39.778;2.710;2022-09-17T16:04:31;101096.22;;;26.28;94.28
54308;BME280;40208;39.778;2.710;2022-09-17T16:07:25;101086.66;;;26.15;93.99
54308;BME280;40208;39.778;2.710;2022-09-17T16:10:12;101103.31;;;26.20;95.30
54308;BME280;40208;39.778;2.710;2022-09-17T16:12:57;101088.34;;;26.16;95.44
54308;BME280;40208;39.778;2.710;2022-09-17T16:15:42;101085.63;;;26.16;94.85
54308;BME280;40208;39.778;2.710;2022-09-17T16:18:28;101007.63;;;25.56;94.74
54308;BME280;40208;39.778;2.710;2022-09-17T16:21:14;101099.56;;;26.13;95.01
54308;BME280;40208;39.778;2.710;2022-09-17T16:23:59;101095.59;;;26.08;95.62
54308;BME280;40208;39.778;2.710;2022-09-17T16:26:43;101091.56;;;26.12;96.60
54308;BME280;40208;39.778;2.710;2022-09-17T16:29:28;101089.00;;;26.10;96.54
54308;BME280;40208;39.778;2.710;2022-09-17T16:32:13;101048.38;;;25.83;96.88
54308;BME280;40208;39.778;2.710;2022-09-17T16:34:57;101088.81;;;26.04;97.15
54308;BME280;40208;39.778;2.710;2022-09-17T16:37:46;101082.44;;;25.87;97.22
54308;BME280;40208;39.778;2.710;2022-09-17T16:40:31;101053.81;;;25.83;96.84
54308;BME280;40208;39.778;2.710;2022-09-17T16:43:17;101038.34;;;25.83;96.38
54308;BME280;40208;39.778;2.710;2022-09-17T16:46:04;101086.72;;;25.97;95.89
54308;BME280;40208;39.778;2.710;2022-09-17T16:48:49;101079.91;;;25.93;96.84
54308;BME280;40208;39.778;2.710;2022-09-17T16:51:34;101087.63;;;26.06;97.41
54308;BME280;40208;39.778;2.710;2022-09-17T16:54:20;101093.50;;;25.93;96.76
54308;BME280;40208;39.778;2.710;2022-09-17T16:57:05;101105.97;;;26.04;95.87
54308;BME280;40208;39.778;2.710;2022-09-17T16:59:49;101111.06;;;25.99;96.12
54308;BME280;40208;39.778;2.710;2022-09-17T17:02:34;101020.97;;;25.42;95.39
54308;BME280;40208;39.778;2.710;2022-09-17T17:05:19;101084.06;;;25.79;96.50
54308;BME280;40208;39.778;2.710;2022-09-17T17:08:04;101100.69;;;25.76;96.58
54308;BME280;40208;39.778;2.710;2022-09-17T17:10:49;101092.84;;;25.73;97.47
54308;BME280;40208;39.778;2.710;2022-09-17T17:13:34;101115.59;;;25.90;97.64
54308;BME280;40208;39.778;2.710;2022-09-17T17:16:19;101113.88;;;25.89;97.67
54308;BME280;40208;39.778;2.710;2022-09-17T17:19:04;101082.31;;;25.70;97.64
54308;BME280;40208;39.778;2.710;2022-09-17T17:21:50;101105.34;;;25.84;97.93
54308;BME280;40208;39.778;2.710;2022-09-17T17:24:35;101102.91;;;25.81;97.53
54308;BME280;40208;39.778;2.710;2022-09-17T17:27:19;101099.41;;;25.89;97.67
54308;BME280;40208;39.778;2.710;2022-09-17T17:30:07;100948.81;;;24.95;97.02
54308;BME280;40208;39.778;2.710;2022-09-17T17:32:52;101107.84;;;25.77;97.71
54308;BME280;40208;39.778;2.710;2022-09-17T17:35:38;101112.63;;;25.84;97.33
54308;BME280;40208;39.778;2.710;2022-09-17T17:38:23;101107.41;;;25.64;96.80
54308;BME280;40208;39.778;2.710;2022-09-17T17:41:12;101106.41;;;25.65;97.53
54308;BME280;40208;39.778;2.710;2022-09-17T17:43:58;101111.28;;;25.62;97.00
54308;BME280;40208;39.778;2.710;2022-09-17T17:46:43;101106.44;;;25.47;96.92
54308;BME280;40208;39.778;2.710;2022-09-17T17:49:27;101096.38;;;25.39;97.25
54308;BME280;40208;39.778;2.710;2022-09-17T17:52:12;101109.75;;;25.59;98.93
54308;BME280;40208;39.778;2.710;2022-09-17T17:54:57;101105.63;;;25.55;98.50
54308;BME280;40208;39.778;2.710;2022-09-17T17:57:42;100919.78;;;24.33;98.05